sensor_id;sensor_type;location;lat;lon;timestamp;temperature;humidity
39675;DHT22;27790;50.840;4.386;2023-08-06T00:00:04;17.50;99.90
39675;DHT22;27790;50.840;4.386;2023-08-06T00:02:30;17.50;99.90
39675;DHT22;27790;50.840;4.386;2023-08-06T00:04:55;17.60;99.90
39675;DHT22;27790;50.840;4.386;2023-08-06T00:07:21;17.70;99.90
39675;DHT22;27790;50.840;4.386;2023-08-06T00:09:47;17.70;99.90
39675;DHT22;27790;50.840;4.386;2023-08-06T00:12:12;17.70;99.90
39675;DHT22;27790;50.840;4.386;2023-08-06T00:14:38;17.70;99.90
39675;DHT22;27790;50.840;4.386;2023-08-06T00:17:03;17.70;99.90
39675;DHT22;27790;50.840;4.386;2023-08-06T00:19:31;17.60;99.90
39675;DHT22;27790;50.840;4.386;2023-08-06T00:21:56;17.60;99.90
39675;DHT22;27790;50.840;4.386;2023-08-06T00:24:22;17.60;99.90
39675;DHT22;27790;50.840;4.386;2023-08-06T00:26:48;17.50;99.90
39675;DHT22;27790;50.840;4.386;2023-08-06T00:29:13;17.50;99.90
39675;DHT22;27790;50.840;4.386;2023-08-06T00:31:41;17.50;99.90
39675;DHT22;27790;50.840;4.386;2023-08-06T00:34:08;17.50;99.90
39675;DHT22;27790;50.840;4.386;2023-08-06T00:36:33;17.50;99.90
39675;DHT22;27790;50.840;4.386;2023-08-06T00:38:59;17.50;99.90
39675;DHT22;27790;50.840;4.386;2023-08-06T00:41:24;17.50;99.90
39675;DHT22;27790;50.840;4.386;2023-08-06T00:43:50;17.60;99.90
39675;DHT22;27790;50.840;4.386;2023-08-06T00:46:16;17.60;99.90
39675;DHT22;27790;50.840;4.386;2023-08-06T00:48:42;17.60;99.90
39675;DHT22;27790;50.840;4.386;2023-08-06T00:51:10;17.60;99.90
39675;DHT22;27790;50.840;4.386;2023-08-06T00:53:37;17.60;99.90
39675;DHT22;27790;50.840;4.386;2023-08-06T00:56:03;17.60;99.90
39675;DHT22;27790;50.840;4.386;2023-08-06T00:58:29;17.60;99.90
39675;DHT22;27790;50.840;4.386;2023-08-06T01:00:55;17.70;99.90
39675;DHT22;27790;50.840;4.386;2023-08-06T01:03:21;17.60;99.90
39675;DHT22;27790;50.840;4.386;2023-08-06T01:05:47;17.60;99.90
39675;DHT22;27790;50.840;4.386;2023-08-06T01:08:48;17.60;99.90
39675;DHT22;27790;50.840;4.386;2023-08-06T01:11:44;17.70;99.90
39675;DHT22;27790;50.840;4.386;2023-08-06T01:14:23;17.70;99.90
39675;DHT22;27790;50.840;4.386;2023-08-06T01:16:52;17.70;99.90
39675;DHT22;27790;50.840;4.386;2023-08-06T01:19:19;17.60;99.90
39675;DHT22;27790;50.840;4.386;2023-08-06T01:21:45;17.50;99.90
39675;DHT22;27790;50.840;4.386;2023-08-06T01:24:11;17.50;99.90
39675;DHT22;27790;50.840;4.386;2023-08-06T01:29:38;17.40;99.90
39675;DHT22;27790;50.840;4.386;2023-08-06T01:32:05;17.40;99.90
39675;DHT22;27790;50.840;4.386;2023-08-06T01:34:34;17.40;99.90
39675;DHT22;27790;50.840;4.386;2023-08-06T01:37:01;17.50;99.90
39675;DHT22;27790;50.840;4.386;2023-08-06T01:39:27;17.50;99.90
39675;DHT22;27790;50.840;4.386;2023-08-06T01:41:52;17.50;99.90
39675;DHT22;27790;50.840;4.386;2023-08-06T01:44:18;17.50;99.90
39675;DHT22;27790;50.840;4.386;2023-08-06T01:46:44;17.50;99.90
39675;DHT22;27790;50.840;4.386;2023-08-06T01:49:09;17.50;99.90
39675;DHT22;27790;50.840;4.386;2023-08-06T01:51:35;17.50;99.90
39675;DHT22;27790;50.840;4.386;2023-08-06T01:54:00;17.50;99.90
39675;DHT22;27790;50.840;4.386;2023-08-06T01:56:26;17.50;99.90
39675;DHT22;27790;50.840;4.386;2023-08-06T01:58:52;17.50;99.90
39675;DHT22;27790;50.840;4.386;2023-08-06T02:01:17;17.50;99.90
39675;DHT22;27790;50.840;4.386;2023-08-06T02:03:43;17.40;99.90
39675;DHT22;27790;50.840;4.386;2023-08-06T02:06:08;17.40;99.90
39675;DHT22;27790;50.840;4.386;2023-08-06T02:08:34;17.40;99.90
39675;DHT22;27790;50.840;4.386;2023-08-06T02:10:59;17.50;99.90
39675;DHT22;27790;50.840;4.386;2023-08-06T02:13:25;17.50;99.90
39675;DHT22;27790;50.840;4.386;2023-08-06T02:15:51;17.40;99.90
39675;DHT22;27790;50.840;4.386;2023-08-06T02:18:16;17.40;99.90
39675;DHT22;27790;50.840;4.386;2023-08-06T02:20:42;17.30;99.90
39675;DHT22;27790;50.840;4.386;2023-08-06T02:23:08;17.20;99.90
39675;DHT22;27790;50.840;4.386;2023-08-06T02:25:34;17.20;99.90
39675;DHT22;27790;50.840;4.386;2023-08-06T02:28:00;17.20;99.90
39675;DHT22;27790;50.840;4.386;2023-08-06T02:30:25;17.20;99.90
39675;DHT22;27790;50.840;4.386;2023-08-06T02:32:51;17.20;99.90
39675;DHT22;27790;50.840;4.386;2023-08-06T02:35:17;17.20;99.90
39675;DHT22;27790;50.840;4.386;2023-08-06T02:37:42;17.30;99.90
39675;DHT22;27790;50.840;4.386;2023-08-06T02:40:08;17.30;99.90
39675;DHT22;27790;50.840;4.386;2023-08-06T02:42:34;17.30;99.90
39675;DHT22;27790;50.840;4.386;2023-08-06T02:44:59;17.30;99.90
39675;DHT22;27790;50.840;4.386;2023-08-06T02:47:25;17.30;99.90
39675;DHT22;27790;50.840;4.386;2023-08-06T02:49:50;17.20;99.90
39675;DHT22;27790;50.840;4.386;2023-08-06T02:52:16;17.20;99.90
39675;DHT22;27790;50.840;4.386;2023-08-06T02:54:42;17.20;99.90
39675;DHT22;27790;50.840;4.386;2023-08-06T02:57:08;17.10;99.90
39675;DHT22;27790;50.840;4.386;2023-08-06T02:59:34;17.10;99.90
39675;DHT22;27790;50.840;4.386;2023-08-06T03:01:59;17.10;99.90
39675;DHT22;27790;50.840;4.386;2023-08-06T03:04:25;17.20;99.90
39675;DHT22;27790;50.840;4.386;2023-08-06T03:06:50;17.10;99.90
39675;DHT22;27790;50.840;4.386;2023-08-06T03:09:17;17.20;99.90
39675;DHT22;27790;50.840;4.386;2023-08-06T03:11:42;17.10;99.90
39675;DHT22;27790;50.840;4.386;2023-08-06T03:14:08;17.10;99.90
39675;DHT22;27790;50.840;4.386;2023-08-06T03:16:34;17.00;99.90
39675;DHT22;27790;50.840;4.386;2023-08-06T03:18:59;17.00;99.90
39675;DHT22;27790;50.840;4.386;2023-08-06T03:21:25;17.00;99.90
39675;DHT22;27790;50.840;4.386;2023-08-06T03:23:50;17.00;99.90
39675;DHT22;27790;50.840;4.386;2023-08-06T03:26:16;17.00;99.90
39675;DHT22;27790;50.840;4.386;2023-08-06T03:28:42;16.90;99.90
39675;DHT22;27790;50.840;4.386;2023-08-06T03:31:08;17.00;99.90
39675;DHT22;27790;50.840;4.386;2023-08-06T03:33:33;16.90;99.90
39675;DHT22;27790;50.840;4.386;2023-08-06T03:35:59;16.90;99.90
39675;DHT22;27790;50.840;4.386;2023-08-06T03:38:24;17.00;99.90
39675;DHT22;27790;50.840;4.386;2023-08-06T03:40:50;17.00;99.90
39675;DHT22;27790;50.840;4.386;2023-08-06T03:43:16;17.00;99.90
39675;DHT22;27790;50.840;4.386;2023-08-06T03:45:42;17.00;99.90
39675;DHT22;27790;50.840;4.386;2023-08-06T03:48:08;17.00;99.90
39675;DHT22;27790;50.840;4.386;2023-08-06T03:50:33;17.00;99.90
39675;DHT22;27790;50.840;4.386;2023-08-06T03:52:59;17.00;99.90
39675;DHT22;27790;50.840;4.386;2023-08-06T03:55:25;17.10;99.90
39675;DHT22;27790;50.840;4.386;2023-08-06T03:57:50;17.10;99.90
39675;DHT22;27790;50.840;4.386;2023-08-06T04:00:16;17.20;99.90
39675;DHT22;27790;50.840;4.386;2023-08-06T04:02:42;17.10;99.90
39675;DHT22;27790;50.840;4.386;2023-08-06T04:05:08;17.00;99.90
39675;DHT22;27790;50.840;4.386;2023-08-06T04:07:34;16.80;99.90
39675;DHT22;27790;50.840;4.386;2023-08-06T04:10:02;16.80;99.90
39675;DHT22;27790;50.840;4.386;2023-08-06T04:12:28;16.60;99.90
39675;DHT22;27790;50.840;4.386;2023-08-06T04:14:54;16.40;99.90
39675;DHT22;27790;50.840;4.386;2023-08-06T04:17:21;16.20;99.90
39675;DHT22;27790;50.840;4.386;2023-08-06T04:19:54;16.20;99.90
39675;DHT22;27790;50.840;4.386;2023-08-06T04:22:21;16.00;99.90
39675;DHT22;27790;50.840;4.386;2023-08-06T04:24:47;15.90;99.90
39675;DHT22;27790;50.840;4.386;2023-08-06T04:27:13;15.80;99.90
39675;DHT22;27790;50.840;4.386;2023-08-06T04:29:39;15.70;99.90
39675;DHT22;27790;50.840;4.386;2023-08-06T04:32:07;15.60;99.90
39675;DHT22;27790;50.840;4.386;2023-08-06T04:34:34;15.60;99.90
39675;DHT22;27790;50.840;4.386;2023-08-06T04:37:00;15.60;99.90
39675;DHT22;27790;50.840;4.386;2023-08-06T04:39:26;15.60;99.90
39675;DHT22;27790;50.840;4.386;2023-08-06T04:41:52;15.60;99.90
39675;DHT22;27790;50.840;4.386;2023-08-06T04:44:18;15.70;99.90
39675;DHT22;27790;50.840;4.386;2023-08-06T04:46:43;15.70;99.90
39675;DHT22;27790;50.840;4.386;2023-08-06T04:49:09;15.70;99.90
39675;DHT22;27790;50.840;4.386;2023-08-06T04:51:35;15.70;99.90
39675;DHT22;27790;50.840;4.386;2023-08-06T04:54:00;15.60;99.90
39675;DHT22;27790;50.840;4.386;2023-08-06T04:56:26;15.50;99.90
39675;DHT22;27790;50.840;4.386;2023-08-06T04:58:52;15.50;99.90
39675;DHT22;27790;50.840;4.386;2023-08-06T05:01:18;15.50;99.90
39675;DHT22;27790;50.840;4.386;2023-08-06T05:03:43;15.60;99.90
39675;DHT22;27790;50.840;4.386;2023-08-06T05:06:09;15.50;99.90
39675;DHT22;27790;50.840;4.386;2023-08-06T05:08:36;15.50;99.90
39675;DHT22;27790;50.840;4.386;2023-08-06T05:11:01;15.50;99.90
39675;DHT22;27790;50.840;4.386;2023-08-06T05:13:27;15.50;99.90
39675;DHT22;27790;50.840;4.386;2023-08-06T05:15:55;15.60;99.90
39675;DHT22;27790;50.840;4.386;2023-08-06T05:18:21;15.60;99.90
39675;DHT22;27790;50.840;4.386;2023-08-06T05:20:47;15.60;99.90
39675;DHT22;27790;50.840;4.386;2023-08-06T05:23:13;15.60;99.90
39675;DHT22;27790;50.840;4.386;2023-08-06T05:25:38;15.50;99.90
39675;DHT22;27790;50.840;4.386;2023-08-06T05:28:04;15.60;99.90
39675;DHT22;27790;50.840;4.386;2023-08-06T05:30:30;15.70;99.90
39675;DHT22;27790;50.840;4.386;2023-08-06T05:32:56;15.60;99.90
39675;DHT22;27790;50.840;4.386;2023-08-06T05:35:22;15.70;99.90
39675;DHT22;27790;50.840;4.386;2023-08-06T05:37:48;15.80;99.90
39675;DHT22;27790;50.840;4.386;2023-08-06T05:40:15;15.80;99.90
39675;DHT22;27790;50.840;4.386;2023-08-06T05:42:41;15.80;99.90
39675;DHT22;27790;50.840;4.386;2023-08-06T05:45:07;15.80;99.90
39675;DHT22;27790;50.840;4.386;2023-08-06T05:47:32;15.80;99.90
39675;DHT22;27790;50.840;4.386;2023-08-06T05:49:58;15.90;99.90
39675;DHT22;27790;50.840;4.386;2023-08-06T05:52:24;15.90;99.90
39675;DHT22;27790;50.840;4.386;2023-08-06T05:54:49;16.00;99.90
39675;DHT22;27790;50.840;4.386;2023-08-06T05:57:16;15.90;99.90
39675;DHT22;27790;50.840;4.386;2023-08-06T05:59:42;15.90;99.90
39675;DHT22;27790;50.840;4.386;2023-08-06T06:02:07;15.90;99.90
39675;DHT22;27790;50.840;4.386;2023-08-06T06:04:33;16.00;99.90
39675;DHT22;27790;50.840;4.386;2023-08-06T06:06:58;16.10;99.90
39675;DHT22;27790;50.840;4.386;2023-08-06T06:09:24;16.10;99.90
39675;DHT22;27790;50.840;4.386;2023-08-06T06:11:50;16.20;99.90
39675;DHT22;27790;50.840;4.386;2023-08-06T06:14:17;16.20;99.90
39675;DHT22;27790;50.840;4.386;2023-08-06T06:16:43;16.30;99.90
39675;DHT22;27790;50.840;4.386;2023-08-06T06:19:08;16.40;99.90
39675;DHT22;27790;50.840;4.386;2023-08-06T06:21:34;16.40;99.90
39675;DHT22;27790;50.840;4.386;2023-08-06T06:23:59;16.40;99.90
39675;DHT22;27790;50.840;4.386;2023-08-06T06:26:25;16.40;99.90
39675;DHT22;27790;50.840;4.386;2023-08-06T06:28:51;16.50;99.90
39675;DHT22;27790;50.840;4.386;2023-08-06T06:31:16;16.60;99.90
39675;DHT22;27790;50.840;4.386;2023-08-06T06:33:42;16.70;99.90
39675;DHT22;27790;50.840;4.386;2023-08-06T06:36:07;16.70;99.90
39675;DHT22;27790;50.840;4.386;2023-08-06T06:38:34;16.80;99.90
39675;DHT22;27790;50.840;4.386;2023-08-06T06:40:59;16.80;99.90
39675;DHT22;27790;50.840;4.386;2023-08-06T06:43:25;16.80;99.90
39675;DHT22;27790;50.840;4.386;2023-08-06T06:45:58;16.80;99.90
39675;DHT22;27790;50.840;4.386;2023-08-06T06:48:28;16.70;99.90
39675;DHT22;27790;50.840;4.386;2023-08-06T06:50:54;16.60;99.90
39675;DHT22;27790;50.840;4.386;2023-08-06T06:53:20;16.60;99.90
39675;DHT22;27790;50.840;4.386;2023-08-06T06:55:46;16.60;99.90
39675;DHT22;27790;50.840;4.386;2023-08-06T06:58:17;16.70;99.90
39675;DHT22;27790;50.840;4.386;2023-08-06T07:00:43;16.70;99.90
39675;DHT22;27790;50.840;4.386;2023-08-06T07:03:08;16.60;99.90
39675;DHT22;27790;50.840;4.386;2023-08-06T07:05:34;16.50;99.90
39675;DHT22;27790;50.840;4.386;2023-08-06T07:07:59;16.40;99.90
39675;DHT22;27790;50.840;4.386;2023-08-06T07:10:25;16.30;99.90
39675;DHT22;27790;50.840;4.386;2023-08-06T07:12:51;16.20;99.90
39675;DHT22;27790;50.840;4.386;2023-08-06T07:15:17;16.20;99.90
39675;DHT22;27790;50.840;4.386;2023-08-06T07:17:43;16.20;99.90
39675;DHT22;27790;50.840;4.386;2023-08-06T07:20:09;16.20;99.90
39675;DHT22;27790;50.840;4.386;2023-08-06T07:22:34;16.20;99.90
39675;DHT22;27790;50.840;4.386;2023-08-06T07:25:01;16.20;99.90
39675;DHT22;27790;50.840;4.386;2023-08-06T07:27:26;16.30;99.90
39675;DHT22;27790;50.840;4.386;2023-08-06T07:29:52;16.30;99.90
39675;DHT22;27790;50.840;4.386;2023-08-06T07:32:18;16.20;99.90
39675;DHT22;27790;50.840;4.386;2023-08-06T07:34:43;16.10;99.90
39675;DHT22;27790;50.840;4.386;2023-08-06T07:37:09;16.20;99.90
39675;DHT22;27790;50.840;4.386;2023-08-06T07:39:34;16.30;99.90
39675;DHT22;27790;50.840;4.386;2023-08-06T07:42:00;16.50;99.90
39675;DHT22;27790;50.840;4.386;2023-08-06T07:44:27;16.60;99.90
39675;DHT22;27790;50.840;4.386;2023-08-06T07:46:53;16.70;99.90
39675;DHT22;27790;50.840;4.386;2023-08-06T07:49:18;16.90;99.90
39675;DHT22;27790;50.840;4.386;2023-08-06T07:51:44;17.00;99.90
39675;DHT22;27790;50.840;4.386;2023-08-06T07:54:10;17.00;99.90
39675;DHT22;27790;50.840;4.386;2023-08-06T07:56:35;17.20;99.90
39675;DHT22;27790;50.840;4.386;2023-08-06T07:59:02;17.20;99.90
39675;DHT22;27790;50.840;4.386;2023-08-06T08:01:27;17.30;99.90
39675;DHT22;27790;50.840;4.386;2023-08-06T08:03:53;17.50;99.90
39675;DHT22;27790;50.840;4.386;2023-08-06T08:06:19;17.50;99.90
39675;DHT22;27790;50.840;4.386;2023-08-06T08:08:44;17.60;99.90
39675;DHT22;27790;50.840;4.386;2023-08-06T08:11:10;17.80;99.90
39675;DHT22;27790;50.840;4.386;2023-08-06T08:13:36;18.00;99.90
39675;DHT22;27790;50.840;4.386;2023-08-06T08:16:02;18.00;99.90
39675;DHT22;27790;50.840;4.386;2023-08-06T08:18:27;18.00;99.90
39675;DHT22;27790;50.840;4.386;2023-08-06T08:20:53;18.10;99.90
39675;DHT22;27790;50.840;4.386;2023-08-06T08:23:19;17.90;99.90
39675;DHT22;27790;50.840;4.386;2023-08-06T08:25:44;17.70;99.90
39675;DHT22;27790;50.840;4.386;2023-08-06T08:28:10;17.50;99.90
39675;DHT22;27790;50.840;4.386;2023-08-06T08:30:35;17.30;99.90
39675;DHT22;27790;50.840;4.386;2023-08-06T08:33:01;17.10;99.90
39675;DHT22;27790;50.840;4.386;2023-08-06T08:35:26;17.00;99.90
39675;DHT22;27790;50.840;4.386;2023-08-06T08:37:52;16.90;99.90
39675;DHT22;27790;50.840;4.386;2023-08-06T08:40:18;16.90;99.90
39675;DHT22;27790;50.840;4.386;2023-08-06T08:42:43;16.90;99.90
39675;DHT22;27790;50.840;4.386;2023-08-06T08:45:14;16.80;99.90
39675;DHT22;27790;50.840;4.386;2023-08-06T08:47:44;16.80;99.90
39675;DHT22;27790;50.840;4.386;2023-08-06T08:50:10;16.80;99.90
39675;DHT22;27790;50.840;4.386;2023-08-06T08:52:40;17.00;99.90
39675;DHT22;27790;50.840;4.386;2023-08-06T08:55:07;17.10;99.90
39675;DHT22;27790;50.840;4.386;2023-08-06T08:57:33;17.10;99.90
39675;DHT22;27790;50.840;4.386;2023-08-06T08:59:59;17.10;99.90
39675;DHT22;27790;50.840;4.386;2023-08-06T09:02:27;17.20;99.90
39675;DHT22;27790;50.840;4.386;2023-08-06T09:04:55;17.40;99.90
39675;DHT22;27790;50.840;4.386;2023-08-06T09:07:23;17.20;99.90
39675;DHT22;27790;50.840;4.386;2023-08-06T09:09:49;17.30;99.90
39675;DHT22;27790;50.840;4.386;2023-08-06T09:12:16;17.50;99.90
39675;DHT22;27790;50.840;4.386;2023-08-06T09:14:42;17.40;99.90
39675;DHT22;27790;50.840;4.386;2023-08-06T09:17:09;17.40;99.90
39675;DHT22;27790;50.840;4.386;2023-08-06T09:19:36;17.30;99.90
39675;DHT22;27790;50.840;4.386;2023-08-06T09:22:02;17.20;99.90
39675;DHT22;27790;50.840;4.386;2023-08-06T09:24:28;17.20;99.90
39675;DHT22;27790;50.840;4.386;2023-08-06T09:26:54;17.00;99.90
39675;DHT22;27790;50.840;4.386;2023-08-06T09:29:19;17.00;99.90
39675;DHT22;27790;50.840;4.386;2023-08-06T09:31:47;17.00;99.90
39675;DHT22;27790;50.840;4.386;2023-08-06T09:36:47;16.70;99.90
39675;DHT22;27790;50.840;4.386;2023-08-06T09:39:14;16.50;99.90
39675;DHT22;27790;50.840;4.386;2023-08-06T09:41:41;16.40;99.90
39675;DHT22;27790;50.840;4.386;2023-08-06T09:44:15;16.30;99.90
39675;DHT22;27790;50.840;4.386;2023-08-06T09:46:42;16.20;99.90
39675;DHT22;27790;50.840;4.386;2023-08-06T09:49:07;16.10;99.90
39675;DHT22;27790;50.840;4.386;2023-08-06T09:51:54;16.20;99.90
39675;DHT22;27790;50.840;4.386;2023-08-06T09:54:24;16.20;99.90
39675;DHT22;27790;50.840;4.386;2023-08-06T09:56:50;16.20;99.90
39675;DHT22;27790;50.840;4.386;2023-08-06T09:59:17;16.30;99.90
39675;DHT22;27790;50.840;4.386;2023-08-06T10:01:43;16.30;99.90
39675;DHT22;27790;50.840;4.386;2023-08-06T10:04:10;16.40;99.90
39675;DHT22;27790;50.840;4.386;2023-08-06T10:06:37;16.50;99.90
39675;DHT22;27790;50.840;4.386;2023-08-06T10:09:04;16.60;99.90
39675;DHT22;27790;50.840;4.386;2023-08-06T10:11:30;16.60;99.90
39675;DHT22;27790;50.840;4.386;2023-08-06T10:14:11;16.60;99.90
39675;DHT22;27790;50.840;4.386;2023-08-06T10:16:40;16.60;99.90
39675;DHT22;27790;50.840;4.386;2023-08-06T10:19:10;16.70;99.90
39675;DHT22;27790;50.840;4.386;2023-08-06T10:21:38;16.70;99.90
39675;DHT22;27790;50.840;4.386;2023-08-06T10:24:07;16.70;99.90
39675;DHT22;27790;50.840;4.386;2023-08-06T10:26:36;16.70;99.90
39675;DHT22;27790;50.840;4.386;2023-08-06T10:29:01;16.70;99.90
39675;DHT22;27790;50.840;4.386;2023-08-06T10:31:54;16.80;99.90
39675;DHT22;27790;50.840;4.386;2023-08-06T10:34:22;16.90;99.90
39675;DHT22;27790;50.840;4.386;2023-08-06T10:36:48;16.90;99.90
39675;DHT22;27790;50.840;4.386;2023-08-06T10:39:14;16.60;99.90
39675;DHT22;27790;50.840;4.386;2023-08-06T10:41:42;16.30;99.90
39675;DHT22;27790;50.840;4.386;2023-08-06T10:44:09;16.10;99.90
39675;DHT22;27790;50.840;4.386;2023-08-06T10:46:36;16.00;99.90
39675;DHT22;27790;50.840;4.386;2023-08-06T10:49:03;15.90;99.90
39675;DHT22;27790;50.840;4.386;2023-08-06T10:51:28;15.80;99.90
39675;DHT22;27790;50.840;4.386;2023-08-06T10:53:54;15.70;99.90
39675;DHT22;27790;50.840;4.386;2023-08-06T10:56:22;15.70;99.90
39675;DHT22;27790;50.840;4.386;2023-08-06T10:58:50;15.90;99.90
39675;DHT22;27790;50.840;4.386;2023-08-06T11:01:17;16.00;99.90
39675;DHT22;27790;50.840;4.386;2023-08-06T11:03:45;16.10;99.90
39675;DHT22;27790;50.840;4.386;2023-08-06T11:06:16;16.20;99.90
39675;DHT22;27790;50.840;4.386;2023-08-06T11:08:48;16.30;99.90
39675;DHT22;27790;50.840;4.386;2023-08-06T11:11:15;16.40;99.90
39675;DHT22;27790;50.840;4.386;2023-08-06T11:13:42;16.60;99.90
39675;DHT22;27790;50.840;4.386;2023-08-06T11:16:09;16.60;99.90
39675;DHT22;27790;50.840;4.386;2023-08-06T11:18:34;16.60;99.90
39675;DHT22;27790;50.840;4.386;2023-08-06T11:21:01;16.70;99.90
39675;DHT22;27790;50.840;4.386;2023-08-06T11:23:27;16.70;99.90
39675;DHT22;27790;50.840;4.386;2023-08-06T11:25:54;16.80;99.90
39675;DHT22;27790;50.840;4.386;2023-08-06T11:28:20;16.90;99.90
39675;DHT22;27790;50.840;4.386;2023-08-06T11:30:49;17.00;99.90
39675;DHT22;27790;50.840;4.386;2023-08-06T11:33:23;16.70;99.90
39675;DHT22;27790;50.840;4.386;2023-08-06T11:35:51;16.30;99.90
39675;DHT22;27790;50.840;4.386;2023-08-06T11:38:17;16.30;99.90
39675;DHT22;27790;50.840;4.386;2023-08-06T11:40:47;16.40;99.90
39675;DHT22;27790;50.840;4.386;2023-08-06T11:43:13;16.50;99.90
39675;DHT22;27790;50.840;4.386;2023-08-06T11:45:39;16.30;99.90
39675;DHT22;27790;50.840;4.386;2023-08-06T11:48:05;16.00;99.90
39675;DHT22;27790;50.840;4.386;2023-08-06T11:50:31;15.70;99.90
39675;DHT22;27790;50.840;4.386;2023-08-06T11:53:00;15.60;99.90
39675;DHT22;27790;50.840;4.386;2023-08-06T11:55:27;15.60;99.90
39675;DHT22;27790;50.840;4.386;2023-08-06T11:57:54;15.60;99.90
39675;DHT22;27790;50.840;4.386;2023-08-06T12:00:23;15.80;99.90
39675;DHT22;27790;50.840;4.386;2023-08-06T12:02:49;15.70;99.90
39675;DHT22;27790;50.840;4.386;2023-08-06T12:05:18;15.70;99.90
39675;DHT22;27790;50.840;4.386;2023-08-06T12:07:48;15.70;99.90
39675;DHT22;27790;50.840;4.386;2023-08-06T12:10:15;15.80;99.90
39675;DHT22;27790;50.840;4.386;2023-08-06T12:12:41;16.00;99.90
39675;DHT22;27790;50.840;4.386;2023-08-06T12:15:08;16.30;99.90
39675;DHT22;27790;50.840;4.386;2023-08-06T12:17:34;16.60;99.90
39675;DHT22;27790;50.840;4.386;2023-08-06T12:20:01;16.80;99.90
39675;DHT22;27790;50.840;4.386;2023-08-06T12:22:26;17.00;99.90
39675;DHT22;27790;50.840;4.386;2023-08-06T12:24:52;17.20;99.90
39675;DHT22;27790;50.840;4.386;2023-08-06T12:27:18;17.20;99.90
39675;DHT22;27790;50.840;4.386;2023-08-06T12:29:44;17.30;99.90
39675;DHT22;27790;50.840;4.386;2023-08-06T12:32:11;17.40;99.90
39675;DHT22;27790;50.840;4.386;2023-08-06T12:34:38;17.60;99.90
39675;DHT22;27790;50.840;4.386;2023-08-06T12:37:04;17.70;99.90
39675;DHT22;27790;50.840;4.386;2023-08-06T12:39:30;17.80;99.90
39675;DHT22;27790;50.840;4.386;2023-08-06T12:41:56;17.80;99.90
39675;DHT22;27790;50.840;4.386;2023-08-06T12:44:23;17.60;99.90
39675;DHT22;27790;50.840;4.386;2023-08-06T12:46:50;17.40;99.90
39675;DHT22;27790;50.840;4.386;2023-08-06T12:49:16;17.20;99.90
39675;DHT22;27790;50.840;4.386;2023-08-06T12:51:42;17.20;99.90
39675;DHT22;27790;50.840;4.386;2023-08-06T12:54:08;17.50;99.90
39675;DHT22;27790;50.840;4.386;2023-08-06T12:56:34;17.60;99.90
39675;DHT22;27790;50.840;4.386;2023-08-06T12:59:00;17.70;99.90
39675;DHT22;27790;50.840;4.386;2023-08-06T13:01:25;17.80;99.90
39675;DHT22;27790;50.840;4.386;2023-08-06T13:03:51;17.90;99.90
39675;DHT22;27790;50.840;4.386;2023-08-06T13:06:17;17.70;99.90
39675;DHT22;27790;50.840;4.386;2023-08-06T13:08:42;17.50;99.90
39675;DHT22;27790;50.840;4.386;2023-08-06T13:11:08;17.50;99.90
39675;DHT22;27790;50.840;4.386;2023-08-06T13:13:33;17.40;99.90
39675;DHT22;27790;50.840;4.386;2023-08-06T13:15:59;17.50;99.90
39675;DHT22;27790;50.840;4.386;2023-08-06T13:18:25;17.50;99.90
39675;DHT22;27790;50.840;4.386;2023-08-06T13:20:53;17.50;99.90
39675;DHT22;27790;50.840;4.386;2023-08-06T13:23:20;17.50;99.90
39675;DHT22;27790;50.840;4.386;2023-08-06T13:25:45;17.40;99.90
39675;DHT22;27790;50.840;4.386;2023-08-06T13:28:11;17.30;99.90
39675;DHT22;27790;50.840;4.386;2023-08-06T13:30:37;17.00;99.90
39675;DHT22;27790;50.840;4.386;2023-08-06T13:33:07;16.70;99.90
39675;DHT22;27790;50.840;4.386;2023-08-06T13:35:33;16.60;99.90
39675;DHT22;27790;50.840;4.386;2023-08-06T13:37:59;16.70;99.90
39675;DHT22;27790;50.840;4.386;2023-08-06T13:40:25;16.60;99.90
39675;DHT22;27790;50.840;4.386;2023-08-06T13:42:50;16.40;99.90
39675;DHT22;27790;50.840;4.386;2023-08-06T13:45:16;16.30;99.90
39675;DHT22;27790;50.840;4.386;2023-08-06T13:47:41;16.10;99.90
39675;DHT22;27790;50.840;4.386;2023-08-06T13:50:08;16.10;99.90
39675;DHT22;27790;50.840;4.386;2023-08-06T13:52:33;16.00;99.90
39675;DHT22;27790;50.840;4.386;2023-08-06T13:55:01;15.90;99.90
39675;DHT22;27790;50.840;4.386;2023-08-06T13:57:26;16.00;99.90
39675;DHT22;27790;50.840;4.386;2023-08-06T13:59:52;16.00;99.90
39675;DHT22;27790;50.840;4.386;2023-08-06T14:02:17;16.10;99.90
39675;DHT22;27790;50.840;4.386;2023-08-06T14:04:43;16.20;99.90
39675;DHT22;27790;50.840;4.386;2023-08-06T14:07:09;16.20;99.90
39675;DHT22;27790;50.840;4.386;2023-08-06T14:09:35;16.20;99.90
39675;DHT22;27790;50.840;4.386;2023-08-06T14:12:00;16.30;99.90
39675;DHT22;27790;50.840;4.386;2023-08-06T14:14:26;16.40;99.90
39675;DHT22;27790;50.840;4.386;2023-08-06T14:16:53;16.40;99.90
39675;DHT22;27790;50.840;4.386;2023-08-06T14:19:19;16.50;99.90
39675;DHT22;27790;50.840;4.386;2023-08-06T14:21:45;16.60;99.90
39675;DHT22;27790;50.840;4.386;2023-08-06T14:24:10;16.70;99.90
39675;DHT22;27790;50.840;4.386;2023-08-06T14:26:36;16.80;99.90
39675;DHT22;27790;50.840;4.386;2023-08-06T14:29:02;16.80;99.90
39675;DHT22;27790;50.840;4.386;2023-08-06T14:31:28;16.70;99.90
39675;DHT22;27790;50.840;4.386;2023-08-06T14:33:54;16.60;99.90
39675;DHT22;27790;50.840;4.386;2023-08-06T14:36:19;16.50;99.90
39675;DHT22;27790;50.840;4.386;2023-08-06T14:38:45;16.50;99.90
39675;DHT22;27790;50.840;4.386;2023-08-06T14:41:10;16.40;99.90
39675;DHT22;27790;50.840;4.386;2023-08-06T14:43:36;16.50;99.90
39675;DHT22;27790;50.840;4.386;2023-08-06T14:46:02;16.60;99.90
39675;DHT22;27790;50.840;4.386;2023-08-06T14:48:28;16.60;99.90
39675;DHT22;27790;50.840;4.386;2023-08-06T14:50:54;16.60;99.90
39675;DHT22;27790;50.840;4.386;2023-08-06T14:53:20;16.70;99.90
39675;DHT22;27790;50.840;4.386;2023-08-06T14:55:46;16.70;99.90
39675;DHT22;27790;50.840;4.386;2023-08-06T14:58:11;16.70;99.90
39675;DHT22;27790;50.840;4.386;2023-08-06T15:00:37;16.80;99.90
39675;DHT22;27790;50.840;4.386;2023-08-06T15:03:03;16.90;99.90
39675;DHT22;27790;50.840;4.386;2023-08-06T15:05:28;16.90;99.90
39675;DHT22;27790;50.840;4.386;2023-08-06T15:07:54;17.00;99.90
39675;DHT22;27790;50.840;4.386;2023-08-06T15:10:20;17.00;99.90
39675;DHT22;27790;50.840;4.386;2023-08-06T15:12:45;17.10;99.90
39675;DHT22;27790;50.840;4.386;2023-08-06T15:15:11;17.10;99.90
39675;DHT22;27790;50.840;4.386;2023-08-06T15:17:36;17.00;99.90
39675;DHT22;27790;50.840;4.386;2023-08-06T15:20:03;17.00;99.90
39675;DHT22;27790;50.840;4.386;2023-08-06T15:22:29;17.10;99.90
39675;DHT22;27790;50.840;4.386;2023-08-06T15:24:57;17.20;99.90
39675;DHT22;27790;50.840;4.386;2023-08-06T15:27:23;17.20;99.90
39675;DHT22;27790;50.840;4.386;2023-08-06T15:29:49;17.10;99.90